sensor_id;sensor_type;location;lat;lon;timestamp;temperature;humidity
14475;DHT22;7323;50.848;4.334;2024-02-23T00:02:18;7.10;42.90
14475;DHT22;7323;50.848;4.334;2024-02-23T00:04:44;6.80;45.70
14475;DHT22;7323;50.848;4.334;2024-02-23T00:07:10;6.90;46.90
14475;DHT22;7323;50.848;4.334;2024-02-23T00:09:37;6.70;43.00
14475;DHT22;7323;50.848;4.334;2024-02-23T00:12:03;6.90;43.30
14475;DHT22;7323;50.848;4.334;2024-02-23T00:14:30;6.80;39.40
14475;DHT22;7323;50.848;4.334;2024-02-23T00:16:56;6.80;26.60
14475;DHT22;7323;50.848;4.334;2024-02-23T00:19:24;6.70;25.00
14475;DHT22;7323;50.848;4.334;2024-02-23T00:21:50;6.70;20.30
14475;DHT22;7323;50.848;4.334;2024-02-23T00:24:18;6.70;13.20
14475;DHT22;7323;50.848;4.334;2024-02-23T00:26:46;6.60;13.70
14475;DHT22;7323;50.848;4.334;2024-02-23T00:29:12;6.60;15.80
14475;DHT22;7323;50.848;4.334;2024-02-23T00:31:40;6.50;15.40
14475;DHT22;7323;50.848;4.334;2024-02-23T00:34:11;6.50;16.90
14475;DHT22;7323;50.848;4.334;2024-02-23T00:36:42;6.50;19.60
14475;DHT22;7323;50.848;4.334;2024-02-23T00:39:08;6.50;22.30
14475;DHT22;7323;50.848;4.334;2024-02-23T00:41:34;6.50;31.10
14475;DHT22;7323;50.848;4.334;2024-02-23T00:44:00;6.50;40.80
14475;DHT22;7323;50.848;4.334;2024-02-23T00:46:26;6.40;50.40
14475;DHT22;7323;50.848;4.334;2024-02-23T00:48:51;6.50;51.10
14475;DHT22;7323;50.848;4.334;2024-02-23T00:51:17;6.40;52.40
14475;DHT22;7323;50.848;4.334;2024-02-23T00:53:42;6.40;56.30
14475;DHT22;7323;50.848;4.334;2024-02-23T00:56:08;6.40;63.20
14475;DHT22;7323;50.848;4.334;2024-02-23T00:58:34;6.40;71.50
14475;DHT22;7323;50.848;4.334;2024-02-23T01:01:00;6.30;80.10
14475;DHT22;7323;50.848;4.334;2024-02-23T01:03:25;6.30;84.50
14475;DHT22;7323;50.848;4.334;2024-02-23T01:05:51;6.30;83.20
14475;DHT22;7323;50.848;4.334;2024-02-23T01:08:17;6.30;84.30
14475;DHT22;7323;50.848;4.334;2024-02-23T01:10:43;6.30;83.60
14475;DHT22;7323;50.848;4.334;2024-02-23T01:13:09;6.30;81.20
14475;DHT22;7323;50.848;4.334;2024-02-23T01:15:35;6.20;85.80
14475;DHT22;7323;50.848;4.334;2024-02-23T01:18:00;6.20;87.80
14475;DHT22;7323;50.848;4.334;2024-02-23T01:20:26;6.20;83.60
14475;DHT22;7323;50.848;4.334;2024-02-23T01:22:52;6.10;82.80
14475;DHT22;7323;50.848;4.334;2024-02-23T01:25:18;6.20;80.30
14475;DHT22;7323;50.848;4.334;2024-02-23T01:27:43;6.30;74.30
14475;DHT22;7323;50.848;4.334;2024-02-23T01:30:12;6.20;72.30
14475;DHT22;7323;50.848;4.334;2024-02-23T01:32:38;6.20;71.90
14475;DHT22;7323;50.848;4.334;2024-02-23T01:35:05;6.30;72.50
14475;DHT22;7323;50.848;4.334;2024-02-23T01:37:31;6.20;69.00
14475;DHT22;7323;50.848;4.334;2024-02-23T01:39:58;6.30;65.60
14475;DHT22;7323;50.848;4.334;2024-02-23T01:42:24;6.30;60.40
14475;DHT22;7323;50.848;4.334;2024-02-23T01:44:54;6.30;56.60
14475;DHT22;7323;50.848;4.334;2024-02-23T01:47:23;6.30;53.40
14475;DHT22;7323;50.848;4.334;2024-02-23T01:49:49;6.30;53.90
14475;DHT22;7323;50.848;4.334;2024-02-23T01:52:15;6.40;49.20
14475;DHT22;7323;50.848;4.334;2024-02-23T01:54:42;6.40;51.20
14475;DHT22;7323;50.848;4.334;2024-02-23T01:57:09;6.40;52.80
14475;DHT22;7323;50.848;4.334;2024-02-23T01:59:38;6.40;50.00
14475;DHT22;7323;50.848;4.334;2024-02-23T02:02:04;6.50;45.10
14475;DHT22;7323;50.848;4.334;2024-02-23T02:04:30;6.50;47.40
14475;DHT22;7323;50.848;4.334;2024-02-23T02:06:58;6.40;50.10
14475;DHT22;7323;50.848;4.334;2024-02-23T02:09:25;6.40;50.90
14475;DHT22;7323;50.848;4.334;2024-02-23T02:11:51;6.40;51.10
14475;DHT22;7323;50.848;4.334;2024-02-23T02:14:17;6.50;49.70
14475;DHT22;7323;50.848;4.334;2024-02-23T02:16:43;6.50;47.30
14475;DHT22;7323;50.848;4.334;2024-02-23T02:19:14;6.50;44.50
14475;DHT22;7323;50.848;4.334;2024-02-23T02:21:40;6.40;46.10
14475;DHT22;7323;50.848;4.334;2024-02-23T02:24:06;6.40;52.50
14475;DHT22;7323;50.848;4.334;2024-02-23T02:26:32;6.40;51.40
14475;DHT22;7323;50.848;4.334;2024-02-23T02:28:58;6.40;52.90
14475;DHT22;7323;50.848;4.334;2024-02-23T02:31:23;6.50;54.80
14475;DHT22;7323;50.848;4.334;2024-02-23T02:33:49;6.40;53.00
14475;DHT22;7323;50.848;4.334;2024-02-23T02:36:15;6.40;51.70
14475;DHT22;7323;50.848;4.334;2024-02-23T02:38:40;6.40;49.20
14475;DHT22;7323;50.848;4.334;2024-02-23T02:41:06;6.40;50.60
14475;DHT22;7323;50.848;4.334;2024-02-23T02:43:32;6.50;47.60
14475;DHT22;7323;50.848;4.334;2024-02-23T02:45:58;6.40;48.60
14475;DHT22;7323;50.848;4.334;2024-02-23T02:48:24;6.50;50.90
14475;DHT22;7323;50.848;4.334;2024-02-23T02:50:50;6.40;50.70
14475;DHT22;7323;50.848;4.334;2024-02-23T02:53:16;6.50;47.90
14475;DHT22;7323;50.848;4.334;2024-02-23T02:55:42;6.50;46.20
14475;DHT22;7323;50.848;4.334;2024-02-23T02:58:09;6.50;41.70
14475;DHT22;7323;50.848;4.334;2024-02-23T03:00:34;6.70;39.70
14475;DHT22;7323;50.848;4.334;2024-02-23T03:03:00;6.50;35.90
14475;DHT22;7323;50.848;4.334;2024-02-23T03:05:26;6.60;31.10
14475;DHT22;7323;50.848;4.334;2024-02-23T03:07:53;6.70;32.00
14475;DHT22;7323;50.848;4.334;2024-02-23T03:10:18;6.60;32.00
14475;DHT22;7323;50.848;4.334;2024-02-23T03:12:44;6.70;23.30
14475;DHT22;7323;50.848;4.334;2024-02-23T03:15:10;6.70;22.90
14475;DHT22;7323;50.848;4.334;2024-02-23T03:17:35;6.80;21.50
14475;DHT22;7323;50.848;4.334;2024-02-23T03:20:02;6.80;19.60
14475;DHT22;7323;50.848;4.334;2024-02-23T03:22:31;6.60;21.60
14475;DHT22;7323;50.848;4.334;2024-02-23T03:24:56;6.60;24.30
14475;DHT22;7323;50.848;4.334;2024-02-23T03:27:28;6.60;22.10
14475;DHT22;7323;50.848;4.334;2024-02-23T03:29:54;6.70;23.00
14475;DHT22;7323;50.848;4.334;2024-02-23T03:32:20;6.80;19.00
14475;DHT22;7323;50.848;4.334;2024-02-23T03:34:45;6.60;18.40
14475;DHT22;7323;50.848;4.334;2024-02-23T03:37:11;6.90;18.00
14475;DHT22;7323;50.848;4.334;2024-02-23T03:39:37;6.70;19.60
14475;DHT22;7323;50.848;4.334;2024-02-23T03:42:04;6.60;22.90
14475;DHT22;7323;50.848;4.334;2024-02-23T03:44:29;6.60;22.00
14475;DHT22;7323;50.848;4.334;2024-02-23T03:46:57;6.60;23.30
14475;DHT22;7323;50.848;4.334;2024-02-23T03:49:22;6.60;23.10
14475;DHT22;7323;50.848;4.334;2024-02-23T03:51:48;6.60;22.10
14475;DHT22;7323;50.848;4.334;2024-02-23T03:54:14;6.60;21.50
14475;DHT22;7323;50.848;4.334;2024-02-23T03:56:43;6.60;21.70
14475;DHT22;7323;50.848;4.334;2024-02-23T03:59:09;6.70;21.30
14475;DHT22;7323;50.848;4.334;2024-02-23T04:01:39;6.70;18.30
14475;DHT22;7323;50.848;4.334;2024-02-23T04:04:05;6.70;15.60
14475;DHT22;7323;50.848;4.334;2024-02-23T04:06:31;6.70;16.30
14475;DHT22;7323;50.848;4.334;2024-02-23T04:08:58;6.70;15.10
14475;DHT22;7323;50.848;4.334;2024-02-23T04:11:23;6.70;14.50
14475;DHT22;7323;50.848;4.334;2024-02-23T04:13:49;6.80;13.00
14475;DHT22;7323;50.848;4.334;2024-02-23T04:16:15;6.70;16.10
14475;DHT22;7323;50.848;4.334;2024-02-23T04:18:40;6.80;13.50
14475;DHT22;7323;50.848;4.334;2024-02-23T04:21:06;6.80;13.60
14475;DHT22;7323;50.848;4.334;2024-02-23T04:23:31;6.80;10.40
14475;DHT22;7323;50.848;4.334;2024-02-23T04:25:58;6.80;12.50
14475;DHT22;7323;50.848;4.334;2024-02-23T04:28:24;6.90;3.30
14475;DHT22;7323;50.848;4.334;2024-02-23T04:30:52;6.80;4.90
14475;DHT22;7323;50.848;4.334;2024-02-23T04:33:17;6.90;4.20
14475;DHT22;7323;50.848;4.334;2024-02-23T04:35:43;6.80;2.80
14475;DHT22;7323;50.848;4.334;2024-02-23T04:38:08;6.80;3.50
14475;DHT22;7323;50.848;4.334;2024-02-23T04:40:34;6.80;3.20
14475;DHT22;7323;50.848;4.334;2024-02-23T04:42:59;6.80;8.90
14475;DHT22;7323;50.848;4.334;2024-02-23T04:45:25;6.60;10.20
14475;DHT22;7323;50.848;4.334;2024-02-23T04:47:51;6.70;9.10
14475;DHT22;7323;50.848;4.334;2024-02-23T04:50:16;6.70;8.20
14475;DHT22;7323;50.848;4.334;2024-02-23T04:52:42;6.80;7.00
14475;DHT22;7323;50.848;4.334;2024-02-23T04:55:08;6.80;3.80
14475;DHT22;7323;50.848;4.334;2024-02-23T04:57:33;6.70;6.10
14475;DHT22;7323;50.848;4.334;2024-02-23T04:59:59;6.80;3.30
14475;DHT22;7323;50.848;4.334;2024-02-23T05:02:25;6.70;5.70
14475;DHT22;7323;50.848;4.334;2024-02-23T05:04:54;6.70;7.30
14475;DHT22;7323;50.848;4.334;2024-02-23T05:07:19;6.70;7.30
14475;DHT22;7323;50.848;4.334;2024-02-23T05:09:45;6.70;9.20
14475;DHT22;7323;50.848;4.334;2024-02-23T05:12:10;6.80;10.00
14475;DHT22;7323;50.848;4.334;2024-02-23T05:14:36;6.70;9.90
14475;DHT22;7323;50.848;4.334;2024-02-23T05:17:02;6.70;10.40
14475;DHT22;7323;50.848;4.334;2024-02-23T05:19:29;6.70;10.30
14475;DHT22;7323;50.848;4.334;2024-02-23T05:21:54;6.70;11.30
14475;DHT22;7323;50.848;4.334;2024-02-23T05:24:20;6.70;11.50
14475;DHT22;7323;50.848;4.334;2024-02-23T05:26:45;6.70;12.60
14475;DHT22;7323;50.848;4.334;2024-02-23T05:29:11;6.60;10.40
14475;DHT22;7323;50.848;4.334;2024-02-23T05:31:52;6.60;9.40
14475;DHT22;7323;50.848;4.334;2024-02-23T05:34:18;6.60;9.30
14475;DHT22;7323;50.848;4.334;2024-02-23T05:36:44;6.60;9.40
14475;DHT22;7323;50.848;4.334;2024-02-23T05:39:12;6.60;8.90
14475;DHT22;7323;50.848;4.334;2024-02-23T05:41:41;6.60;9.80
14475;DHT22;7323;50.848;4.334;2024-02-23T05:44:07;6.60;9.50
14475;DHT22;7323;50.848;4.334;2024-02-23T05:46:34;6.60;11.40
14475;DHT22;7323;50.848;4.334;2024-02-23T05:49:00;6.70;13.00
14475;DHT22;7323;50.848;4.334;2024-02-23T05:51:28;6.60;14.00
14475;DHT22;7323;50.848;4.334;2024-02-23T05:53:54;6.60;14.30
14475;DHT22;7323;50.848;4.334;2024-02-23T05:56:20;6.60;14.90
14475;DHT22;7323;50.848;4.334;2024-02-23T05:58:46;6.70;14.20
14475;DHT22;7323;50.848;4.334;2024-02-23T06:01:11;6.60;15.10
14475;DHT22;7323;50.848;4.334;2024-02-23T06:03:37;6.50;15.50
14475;DHT22;7323;50.848;4.334;2024-02-23T06:06:07;6.60;16.70
14475;DHT22;7323;50.848;4.334;2024-02-23T06:08:33;6.50;15.50
14475;DHT22;7323;50.848;4.334;2024-02-23T06:10:59;6.50;16.80
14475;DHT22;7323;50.848;4.334;2024-02-23T06:13:25;6.50;16.10
14475;DHT22;7323;50.848;4.334;2024-02-23T06:15:51;6.60;15.90
14475;DHT22;7323;50.848;4.334;2024-02-23T06:18:17;6.50;15.40
14475;DHT22;7323;50.848;4.334;2024-02-23T06:20:42;6.60;15.50
14475;DHT22;7323;50.848;4.334;2024-02-23T06:23:08;6.60;13.50
14475;DHT22;7323;50.848;4.334;2024-02-23T06:25:34;6.60;13.60
14475;DHT22;7323;50.848;4.334;2024-02-23T06:27:59;6.60;9.80
14475;DHT22;7323;50.848;4.334;2024-02-23T06:30:25;6.70;10.80
14475;DHT22;7323;50.848;4.334;2024-02-23T06:32:51;6.60;11.30
14475;DHT22;7323;50.848;4.334;2024-02-23T06:35:16;6.60;12.60
14475;DHT22;7323;50.848;4.334;2024-02-23T06:37:42;6.60;12.60
14475;DHT22;7323;50.848;4.334;2024-02-23T06:40:08;6.70;9.30
14475;DHT22;7323;50.848;4.334;2024-02-23T06:42:34;6.70;9.20
14475;DHT22;7323;50.848;4.334;2024-02-23T06:44:59;6.70;10.40
14475;DHT22;7323;50.848;4.334;2024-02-23T06:47:25;6.70;10.60
14475;DHT22;7323;50.848;4.334;2024-02-23T06:49:50;6.80;8.30
14475;DHT22;7323;50.848;4.334;2024-02-23T06:52:16;6.80;7.30
14475;DHT22;7323;50.848;4.334;2024-02-23T06:54:43;6.90;8.00
14475;DHT22;7323;50.848;4.334;2024-02-23T06:57:09;6.90;8.50
14475;DHT22;7323;50.848;4.334;2024-02-23T06:59:35;6.80;8.10
14475;DHT22;7323;50.848;4.334;2024-02-23T07:02:01;6.90;9.20
14475;DHT22;7323;50.848;4.334;2024-02-23T07:04:27;6.90;9.00
14475;DHT22;7323;50.848;4.334;2024-02-23T07:06:54;6.90;6.30
14475;DHT22;7323;50.848;4.334;2024-02-23T07:09:19;7.00;7.10
14475;DHT22;7323;50.848;4.334;2024-02-23T07:11:45;7.00;6.90
14475;DHT22;7323;50.848;4.334;2024-02-23T07:14:11;7.00;5.10
14475;DHT22;7323;50.848;4.334;2024-02-23T07:16:40;6.90;5.70
14475;DHT22;7323;50.848;4.334;2024-02-23T07:19:07;7.00;3.80
14475;DHT22;7323;50.848;4.334;2024-02-23T07:21:33;7.00;6.00
14475;DHT22;7323;50.848;4.334;2024-02-23T07:23:59;7.10;6.60
14475;DHT22;7323;50.848;4.334;2024-02-23T07:26:25;7.00;5.50
14475;DHT22;7323;50.848;4.334;2024-02-23T07:28:50;7.00;1.90
14475;DHT22;7323;50.848;4.334;2024-02-23T07:31:16;7.00;1.00
14475;DHT22;7323;50.848;4.334;2024-02-23T07:33:42;7.10;1.70
14475;DHT22;7323;50.848;4.334;2024-02-23T07:36:17;7.10;2.30
14475;DHT22;7323;50.848;4.334;2024-02-23T07:38:43;7.20;1.00
14475;DHT22;7323;50.848;4.334;2024-02-23T07:41:11;7.10;1.00
14475;DHT22;7323;50.848;4.334;2024-02-23T07:43:39;7.20;1.00
14475;DHT22;7323;50.848;4.334;2024-02-23T07:46:04;7.30;1.00
14475;DHT22;7323;50.848;4.334;2024-02-23T07:48:34;7.30;1.00
14475;DHT22;7323;50.848;4.334;2024-02-23T07:51:01;7.40;1.00
14475;DHT22;7323;50.848;4.334;2024-02-23T07:53:27;7.30;1.00
14475;DHT22;7323;50.848;4.334;2024-02-23T07:55:53;7.40;1.00
14475;DHT22;7323;50.848;4.334;2024-02-23T07:58:18;7.30;1.00
14475;DHT22;7323;50.848;4.334;2024-02-23T08:00:44;7.30;1.00
14475;DHT22;7323;50.848;4.334;2024-02-23T08:03:10;7.40;1.00
14475;DHT22;7323;50.848;4.334;2024-02-23T08:05:36;7.40;1.00
14475;DHT22;7323;50.848;4.334;2024-02-23T08:08:02;7.30;5.90
14475;DHT22;7323;50.848;4.334;2024-02-23T08:10:28;7.30;16.70
14475;DHT22;7323;50.848;4.334;2024-02-23T08:12:53;7.20;27.30
14475;DHT22;7323;50.848;4.334;2024-02-23T08:15:19;7.20;32.80
14475;DHT22;7323;50.848;4.334;2024-02-23T08:17:45;7.10;36.40
14475;DHT22;7323;50.848;4.334;2024-02-23T08:20:10;7.10;41.30
14475;DHT22;7323;50.848;4.334;2024-02-23T08:22:36;7.00;47.90
14475;DHT22;7323;50.848;4.334;2024-02-23T08:25:02;6.90;50.40
14475;DHT22;7323;50.848;4.334;2024-02-23T08:27:28;6.90;49.70
14475;DHT22;7323;50.848;4.334;2024-02-23T08:29:54;6.90;50.10
14475;DHT22;7323;50.848;4.334;2024-02-23T08:32:19;6.90;53.40
14475;DHT22;7323;50.848;4.334;2024-02-23T08:34:45;6.90;59.60
14475;DHT22;7323;50.848;4.334;2024-02-23T08:37:12;6.80;66.70
14475;DHT22;7323;50.848;4.334;2024-02-23T08:39:38;6.80;68.60
14475;DHT22;7323;50.848;4.334;2024-02-23T08:42:04;6.80;75.40
14475;DHT22;7323;50.848;4.334;2024-02-23T08:44:29;6.70;75.90
14475;DHT22;7323;50.848;4.334;2024-02-23T08:46:55;6.70;79.80
14475;DHT22;7323;50.848;4.334;2024-02-23T08:49:21;6.70;82.40
14475;DHT22;7323;50.848;4.334;2024-02-23T08:51:46;6.70;79.90
14475;DHT22;7323;50.848;4.334;2024-02-23T08:54:12;6.70;83.50
14475;DHT22;7323;50.848;4.334;2024-02-23T08:56:38;6.80;83.30
14475;DHT22;7323;50.848;4.334;2024-02-23T08:59:04;6.80;79.30
14475;DHT22;7323;50.848;4.334;2024-02-23T09:01:30;6.70;80.50
14475;DHT22;7323;50.848;4.334;2024-02-23T09:03:56;6.70;82.10
14475;DHT22;7323;50.848;4.334;2024-02-23T09:06:21;6.80;84.30
14475;DHT22;7323;50.848;4.334;2024-02-23T09:08:47;6.90;85.20
14475;DHT22;7323;50.848;4.334;2024-02-23T09:11:13;6.90;80.80
14475;DHT22;7323;50.848;4.334;2024-02-23T09:13:41;6.80;79.80
14475;DHT22;7323;50.848;4.334;2024-02-23T09:16:07;6.80;79.10
14475;DHT22;7323;50.848;4.334;2024-02-23T09:18:34;6.80;75.40
14475;DHT22;7323;50.848;4.334;2024-02-23T09:21:00;6.80;71.30
14475;DHT22;7323;50.848;4.334;2024-02-23T09:23:26;6.90;70.30
14475;DHT22;7323;50.848;4.334;2024-02-23T09:25:52;7.10;66.20
14475;DHT22;7323;50.848;4.334;2024-02-23T09:28:17;7.00;65.90
14475;DHT22;7323;50.848;4.334;2024-02-23T09:30:43;7.10;67.80
14475;DHT22;7323;50.848;4.334;2024-02-23T09:33:09;7.10;63.60
14475;DHT22;7323;50.848;4.334;2024-02-23T09:35:34;7.20;60.60
14475;DHT22;7323;50.848;4.334;2024-02-23T09:38:00;7.20;64.40
14475;DHT22;7323;50.848;4.334;2024-02-23T09:40:26;7.30;62.10
14475;DHT22;7323;50.848;4.334;2024-02-23T09:42:56;7.30;64.70
14475;DHT22;7323;50.848;4.334;2024-02-23T09:45:25;7.40;59.20
14475;DHT22;7323;50.848;4.334;2024-02-23T09:47:56;7.50;52.20
14475;DHT22;7323;50.848;4.334;2024-02-23T09:50:23;7.50;53.00
14475;DHT22;7323;50.848;4.334;2024-02-23T09:52:50;7.80;50.10
14475;DHT22;7323;50.848;4.334;2024-02-23T09:55:23;7.60;52.00
14475;DHT22;7323;50.848;4.334;2024-02-23T09:57:51;7.60;49.50
14475;DHT22;7323;50.848;4.334;2024-02-23T10:00:20;7.60;46.50
14475;DHT22;7323;50.848;4.334;2024-02-23T10:02:46;7.70;43.90
14475;DHT22;7323;50.848;4.334;2024-02-23T10:05:12;7.70;39.20
14475;DHT22;7323;50.848;4.334;2024-02-23T10:07:39;7.80;31.70
14475;DHT22;7323;50.848;4.334;2024-02-23T10:10:09;7.60;24.10
14475;DHT22;7323;50.848;4.334;2024-02-23T10:12:36;7.70;25.90
14475;DHT22;7323;50.848;4.334;2024-02-23T10:15:03;7.90;29.90
14475;DHT22;7323;50.848;4.334;2024-02-23T10:17:32;7.70;29.80
14475;DHT22;7323;50.848;4.334;2024-02-23T10:19:59;8.00;25.00
14475;DHT22;7323;50.848;4.334;2024-02-23T10:22:25;8.00;25.00
14475;DHT22;7323;50.848;4.334;2024-02-23T10:24:51;8.00;27.00
14475;DHT22;7323;50.848;4.334;2024-02-23T10:27:17;8.00;23.90
14475;DHT22;7323;50.848;4.334;2024-02-23T10:29:42;8.10;22.90
14475;DHT22;7323;50.848;4.334;2024-02-23T10:32:14;8.00;21.30
14475;DHT22;7323;50.848;4.334;2024-02-23T10:34:42;8.10;20.60
14475;DHT22;7323;50.848;4.334;2024-02-23T10:37:08;8.20;16.30
14475;DHT22;7323;50.848;4.334;2024-02-23T10:39:36;8.10;12.10
14475;DHT22;7323;50.848;4.334;2024-02-23T10:42:04;8.10;12.80
14475;DHT22;7323;50.848;4.334;2024-02-23T10:44:32;8.10;11.50
14475;DHT22;7323;50.848;4.334;2024-02-23T10:46:59;8.10;10.10
14475;DHT22;7323;50.848;4.334;2024-02-23T10:49:25;8.20;5.40
14475;DHT22;7323;50.848;4.334;2024-02-23T10:51:54;8.30;1.00
14475;DHT22;7323;50.848;4.334;2024-02-23T10:54:20;8.30;1.00
14475;DHT22;7323;50.848;4.334;2024-02-23T10:56:48;8.50;1.00
14475;DHT22;7323;50.848;4.334;2024-02-23T10:59:14;8.50;1.00
14475;DHT22;7323;50.848;4.334;2024-02-23T11:01:45;8.60;1.00
14475;DHT22;7323;50.848;4.334;2024-02-23T11:04:12;8.70;1.00
14475;DHT22;7323;50.848;4.334;2024-02-23T11:06:39;8.80;1.00
14475;DHT22;7323;50.848;4.334;2024-02-23T11:09:06;8.70;1.00
14475;DHT22;7323;50.848;4.334;2024-02-23T11:11:36;8.70;1.00
14475;DHT22;7323;50.848;4.334;2024-02-23T11:14:06;8.60;1.00
14475;DHT22;7323;50.848;4.334;2024-02-23T11:16:32;8.70;1.00
14475;DHT22;7323;50.848;4.334;2024-02-23T11:19:05;8.70;1.00
14475;DHT22;7323;50.848;4.334;2024-02-23T11:21:35;8.70;1.00
14475;DHT22;7323;50.848;4.334;2024-02-23T11:24:05;8.60;1.00
14475;DHT22;7323;50.848;4.334;2024-02-23T11:26:31;8.60;1.00
14475;DHT22;7323;50.848;4.334;2024-02-23T11:28:59;8.60;1.00
14475;DHT22;7323;50.848;4.334;2024-02-23T11:31:34;8.60;1.00
14475;DHT22;7323;50.848;4.334;2024-02-23T11:34:00;8.70;1.00
14475;DHT22;7323;50.848;4.334;2024-02-23T11:36:31;8.70;1.00
14475;DHT22;7323;50.848;4.334;2024-02-23T11:38:59;8.80;1.00
14475;DHT22;7323;50.848;4.334;2024-02-23T11:41:26;8.80;1.00
14475;DHT22;7323;50.848;4.334;2024-02-23T11:43:53;8.80;1.00
14475;DHT22;7323;50.848;4.334;2024-02-23T11:46:21;8.80;1.00
14475;DHT22;7323;50.848;4.334;2024-02-23T11:48:46;8.80;1.00
14475;DHT22;7323;50.848;4.334;2024-02-23T11:51:15;8.90;1.00
14475;DHT22;7323;50.848;4.334;2024-02-23T11:53:42;8.80;1.00
14475;DHT22;7323;50.848;4.334;2024-02-23T11:56:08;8.60;1.00
14475;DHT22;7323;50.848;4.334;2024-02-23T11:58:34;8.70;1.00
14475;DHT22;7323;50.848;4.334;2024-02-23T12:01:01;8.70;1.00
14475;DHT22;7323;50.848;4.334;2024-02-23T12:03:28;8.70;1.00
14475;DHT22;7323;50.848;4.334;2024-02-23T12:05:57;8.80;1.00
14475;DHT22;7323;50.848;4.334;2024-02-23T12:08:28;8.90;1.00
14475;DHT22;7323;50.848;4.334;2024-02-23T12:10:55;9.00;1.00
14475;DHT22;7323;50.848;4.334;2024-02-23T12:13:21;8.90;1.00
14475;DHT22;7323;50.848;4.334;2024-02-23T12:15:51;9.00;1.00
14475;DHT22;7323;50.848;4.334;2024-02-23T12:18:18;9.00;1.00
14475;DHT22;7323;50.848;4.334;2024-02-23T12:20:49;9.10;23.90
14475;DHT22;7323;50.848;4.334;2024-02-23T12:23:15;8.90;23.40
14475;DHT22;7323;50.848;4.334;2024-02-23T12:25:52;9.00;1.00
14475;DHT22;7323;50.848;4.334;2024-02-23T12:28:19;9.10;1.00
14475;DHT22;7323;50.848;4.334;2024-02-23T12:30:45;9.00;1.00
14475;DHT22;7323;50.848;4.334;2024-02-23T12:33:15;9.00;1.00
14475;DHT22;7323;50.848;4.334;2024-02-23T12:35:41;9.00;1.00
14475;DHT22;7323;50.848;4.334;2024-02-23T12:38:07;9.00;1.00
14475;DHT22;7323;50.848;4.334;2024-02-23T12:40:32;9.00;1.00
14475;DHT22;7323;50.848;4.334;2024-02-23T12:42:58;9.20;1.00
14475;DHT22;7323;50.848;4.334;2024-02-23T12:45:24;9.30;1.00
14475;DHT22;7323;50.848;4.334;2024-02-23T12:48:23;9.40;18.70
14475;DHT22;7323;50.848;4.334;2024-02-23T12:51:15;9.50;14.50
14475;DHT22;7323;50.848;4.334;2024-02-23T12:53:53;9.30;13.20
14475;DHT22;7323;50.848;4.334;2024-02-23T12:56:19;9.20;1.00
14475;DHT22;7323;50.848;4.334;2024-02-23T12:58:46;9.20;1.00
14475;DHT22;7323;50.848;4.334;2024-02-23T13:01:15;9.40;1.00
14475;DHT22;7323;50.848;4.334;2024-02-23T13:03:41;9.40;1.00
14475;DHT22;7323;50.848;4.334;2024-02-23T13:06:07;9.30;1.00
14475;DHT22;7323;50.848;4.334;2024-02-23T13:08:33;9.40;1.00
14475;DHT22;7323;50.848;4.334;2024-02-23T13:10:59;9.20;1.00
14475;DHT22;7323;50.848;4.334;2024-02-23T13:13:25;9.10;1.00
14475;DHT22;7323;50.848;4.334;2024-02-23T13:15:54;9.20;1.00
14475;DHT22;7323;50.848;4.334;2024-02-23T13:18:20;9.10;1.00
14475;DHT22;7323;50.848;4.334;2024-02-23T13:20:47;9.20;1.00
14475;DHT22;7323;50.848;4.334;2024-02-23T13:23:13;9.20;1.00
14475;DHT22;7323;50.848;4.334;2024-02-23T13:25:39;9.40;1.00
14475;DHT22;7323;50.848;4.334;2024-02-23T13:28:06;9.40;15.30
14475;DHT22;7323;50.848;4.334;2024-02-23T13:33:20;9.30;11.90
14475;DHT22;7323;50.848;4.334;2024-02-23T13:35:47;9.50;9.80
14475;DHT22;7323;50.848;4.334;2024-02-23T13:38:13;9.70;5.20
14475;DHT22;7323;50.848;4.334;2024-02-23T13:40:52;9.70;6.30
14475;DHT22;7323;50.848;4.334;2024-02-23T13:43:18;9.70;3.70
14475;DHT22;7323;50.848;4.334;2024-02-23T13:45:51;9.80;5.10
14475;DHT22;7323;50.848;4.334;2024-02-23T13:48:17;9.70;5.60
14475;DHT22;7323;50.848;4.334;2024-02-23T13:50:46;9.70;4.00
14475;DHT22;7323;50.848;4.334;2024-02-23T13:53:48;10.00;3.30
14475;DHT22;7323;50.848;4.334;2024-02-23T13:56:14;9.60;1.00
14475;DHT22;7323;50.848;4.334;2024-02-23T13:58:40;9.70;1.00
14475;DHT22;7323;50.848;4.334;2024-02-23T14:01:05;9.60;1.00
14475;DHT22;7323;50.848;4.334;2024-02-23T14:03:33;9.70;1.00
14475;DHT22;7323;50.848;4.334;2024-02-23T14:05:59;9.90;1.00
14475;DHT22;7323;50.848;4.334;2024-02-23T14:08:25;9.90;1.00
14475;DHT22;7323;50.848;4.334;2024-02-23T14:10:50;9.90;1.00
14475;DHT22;7323;50.848;4.334;2024-02-23T14:13:16;10.00;1.00
14475;DHT22;7323;50.848;4.334;2024-02-23T14:15:42;9.90;1.00
14475;DHT22;7323;50.848;4.334;2024-02-23T14:18:08;9.90;1.00
14475;DHT22;7323;50.848;4.334;2024-02-23T14:20:33;9.90;1.00
14475;DHT22;7323;50.848;4.334;2024-02-23T14:22:59;10.00;1.00
14475;DHT22;7323;50.848;4.334;2024-02-23T14:25:24;10.00;1.00
14475;DHT22;7323;50.848;4.334;2024-02-23T14:27:53;10.10;1.00
14475;DHT22;7323;50.848;4.334;2024-02-23T14:30:21;10.10;1.00
14475;DHT22;7323;50.848;4.334;2024-02-23T14:32:47;10.00;1.00
14475;DHT22;7323;50.848;4.334;2024-02-23T14:35:13;10.00;1.00
14475;DHT22;7323;50.848;4.334;2024-02-23T14:37:39;10.00;1.00
14475;DHT22;7323;50.848;4.334;2024-02-23T14:40:05;10.00;1.00
14475;DHT22;7323;50.848;4.334;2024-02-23T14:42:31;9.90;1.00
14475;DHT22;7323;50.848;4.334;2024-02-23T14:44:56;9.80;1.00
14475;DHT22;7323;50.848;4.334;2024-02-23T14:47:22;10.00;1.00
14475;DHT22;7323;50.848;4.334;2024-02-23T14:49:48;10.10;1.00
14475;DHT22;7323;50.848;4.334;2024-02-23T14:52:15;10.10;1.00
14475;DHT22;7323;50.848;4.334;2024-02-23T14:54:41;10.10;1.00
14475;DHT22;7323;50.848;4.334;2024-02-23T14:57:06;10.20;1.00
14475;DHT22;7323;50.848;4.334;2024-02-23T14:59:33;10.30;1.00
14475;DHT22;7323;50.848;4.334;2024-02-23T15:02:02;10.30;1.00
14475;DHT22;7323;50.848;4.334;2024-02-23T15:04:27;10.30;1.00
14475;DHT22;7323;50.848;4.334;2024-02-23T15:06:53;10.50;1.00
14475;DHT22;7323;50.848;4.334;2024-02-23T15:09:19;10.50;1.00
14475;DHT22;7323;50.848;4.334;2024-02-23T15:11:44;10.60;1.00
14475;DHT22;7323;50.848;4.334;2024-02-23T15:14:10;10.50;1.00
14475;DHT22;7323;50.848;4.334;2024-02-23T15:16:36;10.40;1.00
14475;DHT22;7323;50.848;4.334;2024-02-23T15:19:02;10.40;1.00
14475;DHT22;7323;50.848;4.334;2024-02-23T15:21:28;10.30;1.00
14475;DHT22;7323;50.848;4.334;2024-02-23T15:23:53;10.40;1.00
14475;DHT22;7323;50.848;4.334;2024-02-23T15:26:19;10.50;1.00
14475;DHT22;7323;50.848;4.334;2024-02-23T15:28:45;10.50;1.00
14475;DHT22;7323;50.848;4.334;2024-02-23T15:31:12;10.40;1.00
14475;DHT22;7323;50.848;4.334;2024-02-23T15:33:37;10.40;1.00
14475;DHT22;7323;50.848;4.334;2024-02-23T15:36:07;10.20;1.00
14475;DHT22;7323;50.848;4.334;2024-02-23T15:38:34;10.20;1.00
14475;DHT22;7323;50.848;4.334;2024-02-23T15:41:01;10.20;1.00
14475;DHT22;7323;50.848;4.334;2024-02-23T15:43:27;10.20;1.00
14475;DHT22;7323;50.848;4.334;2024-02-23T15:45:54;10.20;1.00
14475;DHT22;7323;50.848;4.334;2024-02-23T15:48:20;10.10;1.00
14475;DHT22;7323;50.848;4.334;2024-02-23T15:50:45;10.00;1.00
14475;DHT22;7323;50.848;4.334;2024-02-23T15:53:11;10.50;1.00
14475;DHT22;7323;50.848;4.334;2024-02-23T15:55:37;11.30;1.00
14475;DHT22;7323;50.848;4.334;2024-02-23T15:58:03;11.70;1.00
14475;DHT22;7323;50.848;4.334;2024-02-23T16:00:29;11.80;1.00
14475;DHT22;7323;50.848;4.334;2024-02-23T16:02:55;11.90;1.00
14475;DHT22;7323;50.848;4.334;2024-02-23T16:05:20;12.20;1.00
14475;DHT22;7323;50.848;4.334;2024-02-23T16:07:46;12.30;1.00